sensor_id;sensor_type;location;lat;lon;timestamp;temperature;humidity
1005;DHT22;491;53.480;10.174;2023-02-21T00:02:16;9.30;99.90
1005;DHT22;491;53.480;10.174;2023-02-21T00:05:01;9.20;99.90
1005;DHT22;491;53.480;10.174;2023-02-21T00:07:45;9.30;99.90
1005;DHT22;491;53.480;10.174;2023-02-21T00:10:29;9.20;99.90
1005;DHT22;491;53.480;10.174;2023-02-21T00:13:13;9.20;99.90
1005;DHT22;491;53.480;10.174;2023-02-21T00:15:57;9.20;99.90
1005;DHT22;491;53.480;10.174;2023-02-21T00:18:41;9.20;99.90
1005;DHT22;491;53.480;10.174;2023-02-21T00:21:29;9.20;99.90
1005;DHT22;491;53.480;10.174;2023-02-21T00:24:15;9.20;99.90
1005;DHT22;491;53.480;10.174;2023-02-21T00:27:00;9.20;99.90
1005;DHT22;491;53.480;10.174;2023-02-21T00:29:46;9.20;99.90
1005;DHT22;491;53.480;10.174;2023-02-21T00:32:31;9.20;99.90
1005;DHT22;491;53.480;10.174;2023-02-21T00:35:15;9.10;99.90
1005;DHT22;491;53.480;10.174;2023-02-21T00:37:59;9.10;99.90
1005;DHT22;491;53.480;10.174;2023-02-21T00:40:43;9.10;99.90
1005;DHT22;491;53.480;10.174;2023-02-21T00:43:28;9.20;99.90
1005;DHT22;491;53.480;10.174;2023-02-21T00:46:13;9.00;99.90
1005;DHT22;491;53.480;10.174;2023-02-21T00:49:01;9.10;99.90
1005;DHT22;491;53.480;10.174;2023-02-21T00:51:45;9.10;99.90
1005;DHT22;491;53.480;10.174;2023-02-21T00:54:32;9.10;99.90
1005;DHT22;491;53.480;10.174;2023-02-21T00:57:16;9.10;99.90
1005;DHT22;491;53.480;10.174;2023-02-21T01:00:00;9.00;99.90
1005;DHT22;491;53.480;10.174;2023-02-21T01:02:44;9.00;99.90
1005;DHT22;491;53.480;10.174;2023-02-21T01:05:28;9.10;99.90
1005;DHT22;491;53.480;10.174;2023-02-21T01:08:12;9.00;99.90
1005;DHT22;491;53.480;10.174;2023-02-21T01:10:57;9.00;99.90
1005;DHT22;491;53.480;10.174;2023-02-21T01:13:42;9.30;99.90
1005;DHT22;491;53.480;10.174;2023-02-21T01:16:32;9.00;99.90
1005;DHT22;491;53.480;10.174;2023-02-21T01:19:16;9.00;99.90
1005;DHT22;491;53.480;10.174;2023-02-21T01:22:01;9.10;99.90
1005;DHT22;491;53.480;10.174;2023-02-21T01:24:48;9.00;99.90
1005;DHT22;491;53.480;10.174;2023-02-21T01:27:32;8.80;99.90
1005;DHT22;491;53.480;10.174;2023-02-21T01:30:17;9.00;99.90
1005;DHT22;491;53.480;10.174;2023-02-21T01:33:02;9.00;99.90
1005;DHT22;491;53.480;10.174;2023-02-21T01:35:46;8.90;99.90
1005;DHT22;491;53.480;10.174;2023-02-21T01:38:33;8.90;99.90
1005;DHT22;491;53.480;10.174;2023-02-21T01:41:17;9.00;99.90
1005;DHT22;491;53.480;10.174;2023-02-21T01:44:32;9.00;99.90
1005;DHT22;491;53.480;10.174;2023-02-21T01:47:17;8.90;99.90
1005;DHT22;491;53.480;10.174;2023-02-21T01:50:18;8.90;99.90
1005;DHT22;491;53.480;10.174;2023-02-21T01:53:06;8.90;99.90
1005;DHT22;491;53.480;10.174;2023-02-21T01:55:53;8.90;99.90
1005;DHT22;491;53.480;10.174;2023-02-21T01:58:37;8.90;99.90
1005;DHT22;491;53.480;10.174;2023-02-21T02:01:40;9.00;99.90
1005;DHT22;491;53.480;10.174;2023-02-21T02:04:25;9.50;99.90
1005;DHT22;491;53.480;10.174;2023-02-21T02:07:09;8.80;99.90
1005;DHT22;491;53.480;10.174;2023-02-21T02:09:56;8.90;99.90
1005;DHT22;491;53.480;10.174;2023-02-21T02:13:14;8.90;99.90
1005;DHT22;491;53.480;10.174;2023-02-21T02:16:02;8.90;99.90
1005;DHT22;491;53.480;10.174;2023-02-21T02:21:39;8.80;99.90
1005;DHT22;491;53.480;10.174;2023-02-21T02:27:19;8.90;99.90
1005;DHT22;491;53.480;10.174;2023-02-21T02:29:56;8.80;99.90
1005;DHT22;491;53.480;10.174;2023-02-21T02:35:30;8.90;99.90
1005;DHT22;491;53.480;10.174;2023-02-21T02:38:22;8.80;99.90
1005;DHT22;491;53.480;10.174;2023-02-21T02:43:57;8.80;99.90
1005;DHT22;491;53.480;10.174;2023-02-21T02:46:27;8.80;99.90
1005;DHT22;491;53.480;10.174;2023-02-21T02:49:16;8.80;99.90
1005;DHT22;491;53.480;10.174;2023-02-21T02:51:42;8.80;99.90
1005;DHT22;491;53.480;10.174;2023-02-21T02:54:07;8.80;99.90
1005;DHT22;491;53.480;10.174;2023-02-21T02:56:36;8.80;99.90
1005;DHT22;491;53.480;10.174;2023-02-21T02:59:43;8.80;99.90
1005;DHT22;491;53.480;10.174;2023-02-21T03:05:02;8.80;99.90
1005;DHT22;491;53.480;10.174;2023-02-21T03:10:30;8.80;99.90
1005;DHT22;491;53.480;10.174;2023-02-21T03:13:21;8.80;99.90
1005;DHT22;491;53.480;10.174;2023-02-21T03:18:44;8.80;99.90
1005;DHT22;491;53.480;10.174;2023-02-21T03:21:22;8.80;99.90
1005;DHT22;491;53.480;10.174;2023-02-21T03:23:51;8.80;99.90
1005;DHT22;491;53.480;10.174;2023-02-21T03:26:17;8.70;99.90
1005;DHT22;491;53.480;10.174;2023-02-21T03:28:44;8.80;99.90
1005;DHT22;491;53.480;10.174;2023-02-21T03:31:13;8.80;99.90
1005;DHT22;491;53.480;10.174;2023-02-21T03:33:40;8.70;99.90
1005;DHT22;491;53.480;10.174;2023-02-21T03:36:06;8.70;99.90
1005;DHT22;491;53.480;10.174;2023-02-21T03:38:33;8.70;99.90
1005;DHT22;491;53.480;10.174;2023-02-21T03:40:58;8.80;99.90
1005;DHT22;491;53.480;10.174;2023-02-21T03:43:24;8.70;99.90
1005;DHT22;491;53.480;10.174;2023-02-21T03:45:49;8.70;99.90
1005;DHT22;491;53.480;10.174;2023-02-21T03:48:15;8.60;99.90
1005;DHT22;491;53.480;10.174;2023-02-21T03:50:40;8.70;99.90
1005;DHT22;491;53.480;10.174;2023-02-21T03:53:06;8.70;99.90
1005;DHT22;491;53.480;10.174;2023-02-21T03:55:32;8.70;99.90
1005;DHT22;491;53.480;10.174;2023-02-21T03:57:57;8.70;99.90
1005;DHT22;491;53.480;10.174;2023-02-21T04:00:23;8.60;99.90
1005;DHT22;491;53.480;10.174;2023-02-21T04:02:48;8.60;99.90
1005;DHT22;491;53.480;10.174;2023-02-21T04:05:14;8.70;99.90
1005;DHT22;491;53.480;10.174;2023-02-21T04:07:39;8.70;99.90
1005;DHT22;491;53.480;10.174;2023-02-21T04:10:05;8.50;99.90
1005;DHT22;491;53.480;10.174;2023-02-21T04:12:30;8.60;99.90
1005;DHT22;491;53.480;10.174;2023-02-21T04:14:56;8.60;99.90
1005;DHT22;491;53.480;10.174;2023-02-21T04:17:23;8.60;99.90
1005;DHT22;491;53.480;10.174;2023-02-21T04:19:48;8.60;99.90
1005;DHT22;491;53.480;10.174;2023-02-21T04:22:14;8.60;99.90
1005;DHT22;491;53.480;10.174;2023-02-21T04:24:42;8.60;99.90
1005;DHT22;491;53.480;10.174;2023-02-21T04:27:07;8.50;99.90
1005;DHT22;491;53.480;10.174;2023-02-21T04:29:33;8.60;99.90
1005;DHT22;491;53.480;10.174;2023-02-21T04:31:58;8.70;99.90
1005;DHT22;491;53.480;10.174;2023-02-21T04:34:24;8.60;99.90
1005;DHT22;491;53.480;10.174;2023-02-21T04:36:49;8.50;99.90
1005;DHT22;491;53.480;10.174;2023-02-21T04:39:15;8.60;99.90
1005;DHT22;491;53.480;10.174;2023-02-21T04:41:41;8.50;99.90
1005;DHT22;491;53.480;10.174;2023-02-21T04:44:06;8.50;99.90
1005;DHT22;491;53.480;10.174;2023-02-21T04:46:32;8.50;99.90
1005;DHT22;491;53.480;10.174;2023-02-21T04:48:58;8.50;99.90
1005;DHT22;491;53.480;10.174;2023-02-21T04:51:25;8.50;99.90
1005;DHT22;491;53.480;10.174;2023-02-21T04:53:52;8.40;99.90
1005;DHT22;491;53.480;10.174;2023-02-21T04:56:24;8.50;99.90
1005;DHT22;491;53.480;10.174;2023-02-21T04:58:51;8.40;99.90
1005;DHT22;491;53.480;10.174;2023-02-21T05:01:18;8.40;99.90
1005;DHT22;491;53.480;10.174;2023-02-21T05:03:44;8.40;99.90
1005;DHT22;491;53.480;10.174;2023-02-21T05:06:09;8.40;99.90
1005;DHT22;491;53.480;10.174;2023-02-21T05:08:35;8.40;99.90
1005;DHT22;491;53.480;10.174;2023-02-21T05:11:02;8.30;99.90
1005;DHT22;491;53.480;10.174;2023-02-21T05:13:27;8.20;99.90
1005;DHT22;491;53.480;10.174;2023-02-21T05:15:53;8.20;99.90
1005;DHT22;491;53.480;10.174;2023-02-21T05:18:18;8.20;99.90
1005;DHT22;491;53.480;10.174;2023-02-21T05:20:50;8.10;99.90
1005;DHT22;491;53.480;10.174;2023-02-21T05:23:17;8.10;99.90
1005;DHT22;491;53.480;10.174;2023-02-21T05:25:43;8.10;99.90
1005;DHT22;491;53.480;10.174;2023-02-21T05:28:09;8.10;99.90
1005;DHT22;491;53.480;10.174;2023-02-21T05:30:35;8.10;99.90
1005;DHT22;491;53.480;10.174;2023-02-21T05:33:00;8.10;99.90
1005;DHT22;491;53.480;10.174;2023-02-21T05:35:26;8.10;99.90
1005;DHT22;491;53.480;10.174;2023-02-21T05:37:51;8.10;99.90
1005;DHT22;491;53.480;10.174;2023-02-21T05:40:17;8.10;99.90
1005;DHT22;491;53.480;10.174;2023-02-21T05:42:43;8.10;99.90
1005;DHT22;491;53.480;10.174;2023-02-21T05:45:09;8.00;99.90
1005;DHT22;491;53.480;10.174;2023-02-21T05:47:35;8.00;99.90
1005;DHT22;491;53.480;10.174;2023-02-21T05:50:20;8.00;99.90
1005;DHT22;491;53.480;10.174;2023-02-21T05:52:49;8.00;99.90
1005;DHT22;491;53.480;10.174;2023-02-21T05:55:14;8.70;99.90
1005;DHT22;491;53.480;10.174;2023-02-21T05:57:40;8.00;99.90
1005;DHT22;491;53.480;10.174;2023-02-21T06:00:12;7.90;99.90
1005;DHT22;491;53.480;10.174;2023-02-21T06:02:37;8.00;99.90
1005;DHT22;491;53.480;10.174;2023-02-21T06:05:03;8.00;99.90
1005;DHT22;491;53.480;10.174;2023-02-21T06:07:29;8.00;99.90
1005;DHT22;491;53.480;10.174;2023-02-21T06:09:54;8.00;99.90
1005;DHT22;491;53.480;10.174;2023-02-21T06:12:19;8.00;99.90
1005;DHT22;491;53.480;10.174;2023-02-21T06:14:45;8.10;99.90
1005;DHT22;491;53.480;10.174;2023-02-21T06:17:10;8.00;99.90
1005;DHT22;491;53.480;10.174;2023-02-21T06:19:36;8.00;99.90
1005;DHT22;491;53.480;10.174;2023-02-21T06:22:01;7.90;99.90
1005;DHT22;491;53.480;10.174;2023-02-21T06:24:27;7.90;99.90
1005;DHT22;491;53.480;10.174;2023-02-21T06:26:55;7.90;99.90
1005;DHT22;491;53.480;10.174;2023-02-21T06:29:21;7.90;99.90
1005;DHT22;491;53.480;10.174;2023-02-21T06:31:47;7.90;99.90
1005;DHT22;491;53.480;10.174;2023-02-21T06:34:13;7.90;99.90
1005;DHT22;491;53.480;10.174;2023-02-21T06:36:38;7.90;99.90
1005;DHT22;491;53.480;10.174;2023-02-21T06:39:04;7.90;99.90
1005;DHT22;491;53.480;10.174;2023-02-21T06:41:32;7.90;99.90
1005;DHT22;491;53.480;10.174;2023-02-21T06:43:58;8.00;99.90
1005;DHT22;491;53.480;10.174;2023-02-21T06:46:27;8.00;99.90
1005;DHT22;491;53.480;10.174;2023-02-21T06:48:53;7.90;99.90
1005;DHT22;491;53.480;10.174;2023-02-21T06:51:18;7.90;99.90
1005;DHT22;491;53.480;10.174;2023-02-21T06:53:48;7.90;99.90
1005;DHT22;491;53.480;10.174;2023-02-21T06:56:14;7.90;99.90
1005;DHT22;491;53.480;10.174;2023-02-21T06:58:40;8.00;99.90
1005;DHT22;491;53.480;10.174;2023-02-21T07:01:08;7.90;99.90
1005;DHT22;491;53.480;10.174;2023-02-21T07:03:38;7.90;99.90
1005;DHT22;491;53.480;10.174;2023-02-21T07:06:04;7.90;99.90
1005;DHT22;491;53.480;10.174;2023-02-21T07:08:29;7.90;99.90
1005;DHT22;491;53.480;10.174;2023-02-21T07:10:55;8.00;99.90
1005;DHT22;491;53.480;10.174;2023-02-21T07:13:21;8.00;99.90
1005;DHT22;491;53.480;10.174;2023-02-21T07:15:46;8.00;99.90
1005;DHT22;491;53.480;10.174;2023-02-21T07:18:12;8.10;99.90
1005;DHT22;491;53.480;10.174;2023-02-21T07:20:37;8.10;99.90
1005;DHT22;491;53.480;10.174;2023-02-21T07:23:03;8.10;99.90
1005;DHT22;491;53.480;10.174;2023-02-21T07:25:28;8.10;99.90
1005;DHT22;491;53.480;10.174;2023-02-21T07:27:54;8.20;99.90
1005;DHT22;491;53.480;10.174;2023-02-21T07:30:20;8.20;99.90
1005;DHT22;491;53.480;10.174;2023-02-21T07:32:45;8.20;99.90
1005;DHT22;491;53.480;10.174;2023-02-21T07:35:11;8.30;99.90
1005;DHT22;491;53.480;10.174;2023-02-21T07:37:37;8.30;99.90
1005;DHT22;491;53.480;10.174;2023-02-21T07:40:03;8.30;99.90
1005;DHT22;491;53.480;10.174;2023-02-21T07:42:31;8.40;99.90
1005;DHT22;491;53.480;10.174;2023-02-21T07:44:57;8.40;99.90
1005;DHT22;491;53.480;10.174;2023-02-21T07:47:26;8.40;99.90
1005;DHT22;491;53.480;10.174;2023-02-21T07:49:52;8.50;99.90
1005;DHT22;491;53.480;10.174;2023-02-21T07:52:19;8.50;99.90
1005;DHT22;491;53.480;10.174;2023-02-21T07:54:45;8.50;99.90
1005;DHT22;491;53.480;10.174;2023-02-21T07:57:10;8.60;99.90
1005;DHT22;491;53.480;10.174;2023-02-21T07:59:36;8.50;99.90
1005;DHT22;491;53.480;10.174;2023-02-21T08:02:02;8.60;99.90
1005;DHT22;491;53.480;10.174;2023-02-21T08:04:28;8.60;99.90
1005;DHT22;491;53.480;10.174;2023-02-21T08:06:58;8.70;99.90
1005;DHT22;491;53.480;10.174;2023-02-21T08:09:24;8.90;99.90
1005;DHT22;491;53.480;10.174;2023-02-21T08:11:50;9.30;99.90
1005;DHT22;491;53.480;10.174;2023-02-21T08:14:15;10.20;99.90
1005;DHT22;491;53.480;10.174;2023-02-21T08:16:41;11.10;1.00
1005;DHT22;491;53.480;10.174;2023-02-21T08:19:06;11.10;1.00
1005;DHT22;491;53.480;10.174;2023-02-21T08:21:33;11.40;1.00
1005;DHT22;491;53.480;10.174;2023-02-21T08:23:59;12.00;47.80
1005;DHT22;491;53.480;10.174;2023-02-21T08:26:24;12.70;1.00
1005;DHT22;491;53.480;10.174;2023-02-21T08:28:50;12.80;99.90
1005;DHT22;491;53.480;10.174;2023-02-21T08:31:16;12.50;1.00
1005;DHT22;491;53.480;10.174;2023-02-21T08:33:44;13.80;87.10
1005;DHT22;491;53.480;10.174;2023-02-21T08:36:09;13.30;1.00
1005;DHT22;491;53.480;10.174;2023-02-21T08:38:35;12.80;1.00
1005;DHT22;491;53.480;10.174;2023-02-21T08:41:01;12.20;1.00
1005;DHT22;491;53.480;10.174;2023-02-21T08:43:27;11.70;1.00
1005;DHT22;491;53.480;10.174;2023-02-21T08:45:53;11.10;1.00
1005;DHT22;491;53.480;10.174;2023-02-21T08:48:21;10.80;1.00
1005;DHT22;491;53.480;10.174;2023-02-21T08:50:47;10.80;1.00
1005;DHT22;491;53.480;10.174;2023-02-21T08:53:13;10.70;1.00
1005;DHT22;491;53.480;10.174;2023-02-21T08:55:39;10.70;1.00
1005;DHT22;491;53.480;10.174;2023-02-21T08:58:04;10.70;1.00
1005;DHT22;491;53.480;10.174;2023-02-21T09:00:30;10.90;1.00
1005;DHT22;491;53.480;10.174;2023-02-21T09:02:57;11.00;99.90
1005;DHT22;491;53.480;10.174;2023-02-21T09:05:26;11.40;99.90
1005;DHT22;491;53.480;10.174;2023-02-21T09:07:53;11.30;1.00
1005;DHT22;491;53.480;10.174;2023-02-21T09:10:29;11.60;1.00
1005;DHT22;491;53.480;10.174;2023-02-21T09:12:55;11.50;30.70
1005;DHT22;491;53.480;10.174;2023-02-21T09:15:20;11.20;1.00
1005;DHT22;491;53.480;10.174;2023-02-21T09:17:46;11.10;1.00
1005;DHT22;491;53.480;10.174;2023-02-21T09:20:16;10.70;1.00
1005;DHT22;491;53.480;10.174;2023-02-21T09:22:43;10.60;1.00
1005;DHT22;491;53.480;10.174;2023-02-21T09:25:12;10.60;25.60
1005;DHT22;491;53.480;10.174;2023-02-21T09:27:39;10.50;1.00
1005;DHT22;491;53.480;10.174;2023-02-21T09:30:10;10.60;1.00
1005;DHT22;491;53.480;10.174;2023-02-21T09:32:37;10.60;12.60
1005;DHT22;491;53.480;10.174;2023-02-21T09:35:06;10.50;14.50
1005;DHT22;491;53.480;10.174;2023-02-21T09:37:32;10.50;1.00
1005;DHT22;491;53.480;10.174;2023-02-21T09:40:01;10.40;51.80
1005;DHT22;491;53.480;10.174;2023-02-21T09:42:30;10.20;34.00
1005;DHT22;491;53.480;10.174;2023-02-21T09:44:56;10.20;77.00
1005;DHT22;491;53.480;10.174;2023-02-21T09:47:31;10.30;99.90
1005;DHT22;491;53.480;10.174;2023-02-21T09:50:02;10.30;89.90
1005;DHT22;491;53.480;10.174;2023-02-21T09:52:33;10.30;14.10
1005;DHT22;491;53.480;10.174;2023-02-21T09:55:04;10.30;71.70
1005;DHT22;491;53.480;10.174;2023-02-21T09:57:33;10.20;18.70
1005;DHT22;491;53.480;10.174;2023-02-21T09:59:58;10.30;1.00
1005;DHT22;491;53.480;10.174;2023-02-21T10:02:50;10.40;29.00
1005;DHT22;491;53.480;10.174;2023-02-21T10:05:42;10.60;27.10
1005;DHT22;491;53.480;10.174;2023-02-21T10:10:46;10.50;1.00
1005;DHT22;491;53.480;10.174;2023-02-21T10:16:16;10.80;1.00
1005;DHT22;491;53.480;10.174;2023-02-21T10:21:37;10.90;1.00
1005;DHT22;491;53.480;10.174;2023-02-21T10:24:26;10.80;1.00
1005;DHT22;491;53.480;10.174;2023-02-21T10:27:03;10.80;1.00
1005;DHT22;491;53.480;10.174;2023-02-21T10:29:47;10.90;99.90
1005;DHT22;491;53.480;10.174;2023-02-21T10:32:15;11.10;1.00
1005;DHT22;491;53.480;10.174;2023-02-21T10:34:40;11.00;1.00
1005;DHT22;491;53.480;10.174;2023-02-21T10:37:34;11.10;1.00
1005;DHT22;491;53.480;10.174;2023-02-21T10:42:47;11.50;1.00
1005;DHT22;491;53.480;10.174;2023-02-21T10:45:17;11.90;99.90
1005;DHT22;491;53.480;10.174;2023-02-21T10:48:00;12.20;1.00
1005;DHT22;491;53.480;10.174;2023-02-21T10:51:28;12.70;1.00
1005;DHT22;491;53.480;10.174;2023-02-21T10:53:28;13.00;1.00
1005;DHT22;491;53.480;10.174;2023-02-21T11:01:20;13.20;99.90
1005;DHT22;491;53.480;10.174;2023-02-21T11:03:49;13.00;1.00
1005;DHT22;491;53.480;10.174;2023-02-21T11:06:31;13.00;54.50
1005;DHT22;491;53.480;10.174;2023-02-21T11:08:58;13.70;1.00
1005;DHT22;491;53.480;10.174;2023-02-21T11:11:34;14.20;1.00
1005;DHT22;491;53.480;10.174;2023-02-21T11:14:23;14.00;1.00
1005;DHT22;491;53.480;10.174;2023-02-21T11:22:14;15.70;99.90
1005;DHT22;491;53.480;10.174;2023-02-21T11:24:59;15.10;99.90
1005;DHT22;491;53.480;10.174;2023-02-21T11:27:27;14.90;99.90
1005;DHT22;491;53.480;10.174;2023-02-21T11:29:54;15.00;99.90
1005;DHT22;491;53.480;10.174;2023-02-21T11:37:47;13.50;1.00
1005;DHT22;491;53.480;10.174;2023-02-21T11:40:49;13.20;44.30
1005;DHT22;491;53.480;10.174;2023-02-21T11:43:24;13.00;99.90
1005;DHT22;491;53.480;10.174;2023-02-21T11:51:50;12.40;1.00
1005;DHT22;491;53.480;10.174;2023-02-21T11:54:26;12.40;1.00
1005;DHT22;491;53.480;10.174;2023-02-21T12:02:44;12.20;99.90
1005;DHT22;491;53.480;10.174;2023-02-21T12:05:44;12.00;1.00
1005;DHT22;491;53.480;10.174;2023-02-21T12:08:37;11.70;99.90
1005;DHT22;491;53.480;10.174;2023-02-21T12:12:14;11.60;1.00
1005;DHT22;491;53.480;10.174;2023-02-21T12:14:38;11.70;1.00
1005;DHT22;491;53.480;10.174;2023-02-21T12:20:19;11.40;1.00
1005;DHT22;491;53.480;10.174;2023-02-21T12:28:43;11.10;99.90
1005;DHT22;491;53.480;10.174;2023-02-21T12:31:23;11.00;99.90
1005;DHT22;491;53.480;10.174;2023-02-21T12:40:15;10.90;99.90
1005;DHT22;491;53.480;10.174;2023-02-21T12:43:15;10.70;99.90
1005;DHT22;491;53.480;10.174;2023-02-21T12:46:00;10.80;99.90
1005;DHT22;491;53.480;10.174;2023-02-21T12:51:09;11.10;99.90
1005;DHT22;491;53.480;10.174;2023-02-21T12:53:53;11.20;99.90
1005;DHT22;491;53.480;10.174;2023-02-21T12:56:52;11.10;99.90
1005;DHT22;491;53.480;10.174;2023-02-21T12:59:35;11.20;99.90
1005;DHT22;491;53.480;10.174;2023-02-21T13:05:13;11.20;99.90
1005;DHT22;491;53.480;10.174;2023-02-21T13:10:30;11.10;99.90
1005;DHT22;491;53.480;10.174;2023-02-21T13:13:11;11.10;99.90
1005;DHT22;491;53.480;10.174;2023-02-21T13:15:41;10.90;99.90
1005;DHT22;491;53.480;10.174;2023-02-21T13:18:10;10.80;99.90
1005;DHT22;491;53.480;10.174;2023-02-21T13:20:44;10.90;99.90
1005;DHT22;491;53.480;10.174;2023-02-21T13:23:11;10.90;99.90
1005;DHT22;491;53.480;10.174;2023-02-21T13:25:55;11.00;99.90
1005;DHT22;491;53.480;10.174;2023-02-21T13:28:25;11.00;99.90
1005;DHT22;491;53.480;10.174;2023-02-21T13:31:04;11.20;60.80
1005;DHT22;491;53.480;10.174;2023-02-21T13:33:41;11.30;1.00
1005;DHT22;491;53.480;10.174;2023-02-21T13:36:39;11.50;1.00
1005;DHT22;491;53.480;10.174;2023-02-21T13:39:12;11.40;1.00
1005;DHT22;491;53.480;10.174;2023-02-21T13:41:50;11.10;59.50
1005;DHT22;491;53.480;10.174;2023-02-21T13:44:34;11.10;59.90
1005;DHT22;491;53.480;10.174;2023-02-21T13:47:21;11.20;56.30
1005;DHT22;491;53.480;10.174;2023-02-21T13:49:55;11.20;61.40
1005;DHT22;491;53.480;10.174;2023-02-21T13:57:42;10.90;74.10
1005;DHT22;491;53.480;10.174;2023-02-21T14:08:46;10.90;99.90
1005;DHT22;491;53.480;10.174;2023-02-21T14:11:15;11.00;99.90
1005;DHT22;491;53.480;10.174;2023-02-21T14:16:53;10.70;99.90
1005;DHT22;491;53.480;10.174;2023-02-21T14:22:03;10.80;99.90
1005;DHT22;491;53.480;10.174;2023-02-21T14:24:33;11.00;99.90
1005;DHT22;491;53.480;10.174;2023-02-21T14:27:48;11.20;94.30
1005;DHT22;491;53.480;10.174;2023-02-21T14:32:40;10.90;19.00
1005;DHT22;491;53.480;10.174;2023-02-21T14:38:02;10.90;59.20
1005;DHT22;491;53.480;10.174;2023-02-21T14:46:11;10.90;99.90
1005;DHT22;491;53.480;10.174;2023-02-21T14:48:55;10.80;99.90
1005;DHT22;491;53.480;10.174;2023-02-21T14:57:23;10.60;99.90
1005;DHT22;491;53.480;10.174;2023-02-21T15:08:21;10.40;99.90
1005;DHT22;491;53.480;10.174;2023-02-21T15:10:58;10.40;99.90
1005;DHT22;491;53.480;10.174;2023-02-21T15:13:26;10.30;99.90
1005;DHT22;491;53.480;10.174;2023-02-21T15:16:13;10.30;99.90
1005;DHT22;491;53.480;10.174;2023-02-21T15:18:40;10.20;99.90
1005;DHT22;491;53.480;10.174;2023-02-21T15:21:15;10.10;99.90
1005;DHT22;491;53.480;10.174;2023-02-21T15:23:44;10.10;99.90
1005;DHT22;491;53.480;10.174;2023-02-21T15:26:25;10.00;99.90
1005;DHT22;491;53.480;10.174;2023-02-21T15:29:11;9.90;99.90
1005;DHT22;491;53.480;10.174;2023-02-21T15:31:56;9.90;99.90
1005;DHT22;491;53.480;10.174;2023-02-21T15:34:28;9.90;99.90
1005;DHT22;491;53.480;10.174;2023-02-21T15:37:33;9.80;99.90
1005;DHT22;491;53.480;10.174;2023-02-21T15:40:03;9.80;99.90
1005;DHT22;491;53.480;10.174;2023-02-21T15:42:37;9.80;99.90
1005;DHT22;491;53.480;10.174;2023-02-21T15:45:11;9.80;99.90
1005;DHT22;491;53.480;10.174;2023-02-21T15:47:40;9.80;99.90
1005;DHT22;491;53.480;10.174;2023-02-21T15:53:24;9.80;99.90
1005;DHT22;491;53.480;10.174;2023-02-21T15:55:51;9.70;99.90
1005;DHT22;491;53.480;10.174;2023-02-21T16:00:47;9.70;99.90
1005;DHT22;491;53.480;10.174;2023-02-21T16:03:38;9.70;99.90
1005;DHT22;491;53.480;10.174;2023-02-21T16:06:24;9.70;99.90
1005;DHT22;491;53.480;10.174;2023-02-21T16:14:02;9.60;99.90
1005;DHT22;491;53.480;10.174;2023-02-21T16:16:33;9.50;99.90
1005;DHT22;491;53.480;10.174;2023-02-21T16:18:58;9.50;99.90
1005;DHT22;491;53.480;10.174;2023-02-21T16:21:27;9.40;99.90
1005;DHT22;491;53.480;10.174;2023-02-21T16:23:53;9.30;99.90
1005;DHT22;491;53.480;10.174;2023-02-21T16:26:22;9.30;99.90
1005;DHT22;491;53.480;10.174;2023-02-21T16:28:52;9.30;99.90
1005;DHT22;491;53.480;10.174;2023-02-21T16:31:28;9.20;99.90
1005;DHT22;491;53.480;10.174;2023-02-21T16:33:54;9.10;99.90
1005;DHT22;491;53.480;10.174;2023-02-21T16:36:28;9.10;99.90
1005;DHT22;491;53.480;10.174;2023-02-21T16:38:55;9.20;99.90
1005;DHT22;491;53.480;10.174;2023-02-21T16:41:21;9.10;99.90
1005;DHT22;491;53.480;10.174;2023-02-21T16:43:47;9.00;99.90
1005;DHT22;491;53.480;10.174;2023-02-21T16:46:13;8.90;99.90
1005;DHT22;491;53.480;10.174;2023-02-21T16:48:39;8.90;99.90
1005;DHT22;491;53.480;10.174;2023-02-21T16:51:09;8.90;99.90
1005;DHT22;491;53.480;10.174;2023-02-21T16:53:38;8.80;99.90
1005;DHT22;491;53.480;10.174;2023-02-21T16:56:03;8.90;99.90
1005;DHT22;491;53.480;10.174;2023-02-21T16:58:43;8.90;99.90
1005;DHT22;491;53.480;10.174;2023-02-21T17:01:35;8.90;99.90
1005;DHT22;491;53.480;10.174;2023-02-21T17:04:01;8.90;99.90
1005;DHT22;491;53.480;10.174;2023-02-21T17:06:29;8.90;99.90
1005;DHT22;491;53.480;10.174;2023-02-21T17:08:55;8.90;99.90
1005;DHT22;491;53.480;10.174;2023-02-21T17:11:21;8.90;99.90
1005;DHT22;491;53.480;10.174;2023-02-21T17:13:46;8.90;99.90
1005;DHT22;491;53.480;10.174;2023-02-21T17:16:12;8.90;99.90
1005;DHT22;491;53.480;10.174;2023-02-21T17:18:42;8.90;99.90
1005;DHT22;491;53.480;10.174;2023-02-21T17:21:07;8.90;99.90
1005;DHT22;491;53.480;10.174;2023-02-21T17:23:33;9.00;99.90
1005;DHT22;491;53.480;10.174;2023-02-21T17:25:58;8.90;99.90
1005;DHT22;491;53.480;10.174;2023-02-21T17:28:24;9.00;99.90
1005;DHT22;491;53.480;10.174;2023-02-21T17:30:49;8.90;99.90
1005;DHT22;491;53.480;10.174;2023-02-21T17:33:15;8.90;99.90
1005;DHT22;491;53.480;10.174;2023-02-21T17:35:40;8.90;99.90
1005;DHT22;491;53.480;10.174;2023-02-21T17:38:06;8.90;99.90
1005;DHT22;491;53.480;10.174;2023-02-21T17:40:32;8.90;99.90
1005;DHT22;491;53.480;10.174;2023-02-21T17:42:57;8.90;99.90
1005;DHT22;491;53.480;10.174;2023-02-21T17:45:23;8.80;99.90
1005;DHT22;491;53.480;10.174;2023-02-21T17:47:50;8.90;99.90
1005;DHT22;491;53.480;10.174;2023-02-21T17:50:17;8.90;99.90
1005;DHT22;491;53.480;10.174;2023-02-21T17:52:43;8.80;99.90
1005;DHT22;491;53.480;10.174;2023-02-21T17:55:15;8.80;99.90
1005;DHT22;491;53.480;10.174;2023-02-21T17:57:41;8.80;99.90
1005;DHT22;491;53.480;10.174;2023-02-21T18:00:10;8.80;99.90
1005;DHT22;491;53.480;10.174;2023-02-21T18:02:37;8.80;99.90
1005;DHT22;491;53.480;10.174;2023-02-21T18:05:03;8.80;99.90
1005;DHT22;491;53.480;10.174;2023-02-21T18:07:35;8.80;99.90
1005;DHT22;491;53.480;10.174;2023-02-21T18:10:02;8.80;99.90
1005;DHT22;491;53.480;10.174;2023-02-21T18:12:29;8.80;99.90
1005;DHT22;491;53.480;10.174;2023-02-21T18:14:55;8.70;99.90
1005;DHT22;491;53.480;10.174;2023-02-21T18:17:21;8.70;99.90
1005;DHT22;491;53.480;10.174;2023-02-21T18:19:46;8.70;99.90
1005;DHT22;491;53.480;10.174;2023-02-21T18:22:12;8.70;99.90
1005;DHT22;491;53.480;10.174;2023-02-21T18:24:38;8.70;99.90
1005;DHT22;491;53.480;10.174;2023-02-21T18:27:05;8.60;99.90
1005;DHT22;491;53.480;10.174;2023-02-21T18:29:30;8.60;99.90
1005;DHT22;491;53.480;10.174;2023-02-21T18:31:56;8.60;99.90
1005;DHT22;491;53.480;10.174;2023-02-21T18:34:22;8.60;99.90
1005;DHT22;491;53.480;10.174;2023-02-21T18:36:52;8.60;99.90
1005;DHT22;491;53.480;10.174;2023-02-21T18:39:20;8.60;99.90
1005;DHT22;491;53.480;10.174;2023-02-21T18:41:46;8.60;99.90
1005;DHT22;491;53.480;10.174;2023-02-21T18:44:12;8.60;99.90
1005;DHT22;491;53.480;10.174;2023-02-21T18:46:37;8.60;99.90
1005;DHT22;491;53.480;10.174;2023-02-21T18:49:06;8.60;99.90
1005;DHT22;491;53.480;10.174;2023-02-21T18:51:35;8.60;99.90
1005;DHT22;491;53.480;10.174;2023-02-21T18:54:01;8.60;99.90
1005;DHT22;491;53.480;10.174;2023-02-21T18:56:26;8.70;99.90
1005;DHT22;491;53.480;10.174;2023-02-21T18:58:52;8.60;99.90
1005;DHT22;491;53.480;10.174;2023-02-21T19:01:19;8.70;99.90
1005;DHT22;491;53.480;10.174;2023-02-21T19:03:48;8.70;99.90
1005;DHT22;491;53.480;10.174;2023-02-21T19:06:19;8.60;99.90
1005;DHT22;491;53.480;10.174;2023-02-21T19:08:46;8.50;99.90